786  
NZUS99 KBOU 220046  
SYNBOU  
 
HOT-AIR BALLOON FORECAST FOR COLORADO  
NATIONAL WEATHER SERVICE DENVER/BOULDER, COLORADO  
1745 MST WEDNESDAY, FEBRUARY 21, 2018  
 
* * * * * NORTHEAST COLORADO * * * * *  
 
METAR KFNL 212356Z AUTO 01007KT 10SM CLR M07/M11 A3014 RMK AO2 SLP280  
60002 T10721111 10011 21072 58002 FZRANO  
METAR KFNL 212256Z AUTO 35008KT 10SM CLR M07/M11 A3014 RMK AO2 SLP280  
T10671111 FZRANO  
METAR KFNL 212156Z AUTO 09007KT 10SM CLR M03/M12 A3015 RMK AO2 SLP273  
T10331122 FZRANO  
 
METAR KGXY 212356Z AUTO 34008KT 10SM CLR M08/M12 A3015 RMK AO2 SLP312  
T10831122 11072 21150 56006 FZRANO  
METAR KGXY 212256Z AUTO 33008KT 10SM CLR M07/M11 A3015 RMK AO2 SLP310  
T10721111 FZRANO  
METAR KGXY 212156Z AUTO 35007KT 10SM CLR M08/M12 A3016 RMK AO2 SLP314  
T10781117 FZRANO  
 
METAR KLMO 220035Z AUTO 03003KT 10SM CLR M07/M12 A3016 RMK AO2  
T10721120  
METAR KLMO 220015Z AUTO 03004KT 10SM CLR M06/M12 A3016 RMK AO2  
T10651120  
METAR KLMO 212355Z AUTO 02003KT 10SM CLR M06/M12 A3016 RMK AO2  
T10571116  
 
METAR KBDU 220032Z AUTO 04003KT 10SM CLR M08/M12 A3012 RMK AO2  
METAR KBDU 220014Z AUTO 03003KT 10SM CLR M08/M12 A3011 RMK AO2  
METAR KBDU 212353Z AUTO 00000KT 10SM CLR M07/M12 A3011 RMK AO2  
 
METAR KEIK 220040Z AUTO 01004KT 10SM CLR M09/M13 A3019 RMK AO2  
T10921126  
METAR KEIK 220017Z AUTO 01003KT 10SM CLR M08/M12 A3019 RMK AO2  
T10811123  
METAR KEIK 212354Z AUTO 35004KT 10SM CLR M07/M12 A3018 RMK AO2  
T10731120  
 
KBJC 212323Z 2200/2224 33010KT P6SM FEW100 SCT200  
FM220200 VRB04KT P6SM FEW050 SCT080  
FM220600 25006KT P6SM SCT030 BKN050  
FM221100 34006KT P6SM VCFG BKN010 OVC025  
FM221600 VRB05KT P6SM VCSH OVC010  
FM221900 02005KT P6SM VCSH SCT010 OVC020  
METAR KBJC 212345Z 35009KT 10SM FEW100 M08/M11 A3009  
METAR KBJC 212245Z 33010KT 10SM FEW100 M06/M11 A3008  
METAR KBJC 212147Z 34009KT 10SM FEW080 M07/M11 A3009  
 
KDEN 212323Z 2200/2306 35011KT P6SM FEW120 SCT200  
FM220200 VRB04KT P6SM FEW050 SCT080  
FM220600 21006KT P6SM SCT030 BKN050  
FM221100 34006KT P6SM VCFG BKN010 OVC030  
FM221600 VRB05KT P6SM VCSH OVC015  
FM221900 02005KT P6SM VCSH SCT015 OVC025  
FM230100 VRB04KT P6SM VCSH SCT020 OVC030  
METAR KDEN 212353Z 33010KT 7SM FEW250 M08/M12 A3009 RMK AO2 SLP267  
T10831122 11056 21083 55000  
METAR KDEN 212253Z 35010KT 6SM HZ FEW120 M07/M11 A3008 RMK AO2 SLP264  
T10721111  
METAR KDEN 212153Z 36010KT 7SM FEW120 FEW200 M07/M11 A3008 RMK AO2  
SLP256 T10671106  
 
METAR KFTG 212352Z 30009KT 10SM FEW180 M07/M09 A3010  
METAR KFTG 212252Z 34008KT 10SM FEW180 M05/M08 A3008  
METAR KFTG 212155Z 36012KT 10SM FEW180 M03/M06 A3008  
 
METAR KBKF 212358Z COR 34007KT 10SM FEW200 M08/M12 A3009 RMK AO2A SLP269  
4/002 T10841116 11036 21084 53004 COR 0001  
METAR KBKF 212358Z 34007KT 10SM FEW200 M08/M12 A3009 RMK AO2A SLP269  
T10841116 11036 21084 53004  
METAR KBKF 212358Z COR 34007KT 10SM FEW200 M08/M12 A3009 RMK AO2A SLP269  
4/002 T10841116 11036 21084 53004 COR 0001  
 
KAPA 212323Z 2200/2224 35011KT P6SM FEW090 SCT200  
FM220200 VRB04KT P6SM FEW050 SCT080  
FM220600 21006KT P6SM SCT030 BKN050  
FM221100 34006KT P6SM VCFG BKN010 OVC030  
FM221600 VRB05KT P6SM VCSH OVC015  
FM221900 02005KT P6SM VCSH SCT015 OVC025  
METAR KAPA 212353Z 36009KT 8SM FEW090 FEW200 M07/M11 A3007 RMK AO2  
SLP271 T10721111 11017 21072 53005  
METAR KAPA 212253Z 35012KT 6SM BR FEW090 M06/M10 A3006 RMK AO2 SLP260  
T10561100  
METAR KAPA 212153Z 36011KT 10SM FEW090 M04/M08 A3005 RMK AO2 SLP254  
T10391083  
 
METAR KMNH 220030Z AUTO 16005KT 10SM CLR M07/M12 A3005 RMK AO2  
METAR KMNH 220012Z AUTO 17009KT 10SM CLR M06/M12 A3004 RMK AO2  
METAR KMNH 212354Z AUTO 17012KT 10SM CLR M06/M11 A3003 RMK AO2  
 
METAR KFMM 220035Z AUTO 11012KT 10SM CLR M03/M11 A3016 RMK AO2  
T10331106  
METAR KFMM 220015Z AUTO 12011KT 10SM CLR M01/M11 A3015 RMK AO2  
T10131112  
METAR KFMM 212355Z AUTO 12010KT 10SM CLR 00/M11 A3015 RMK AO2 T10051115  
10010 21068  
 
METAR KSTK 220030Z AUTO 15007KT 10SM CLR M03/M10 A3019 RMK AO2  
METAR KSTK 220010Z AUTO 16009KT 10SM CLR M02/M11 A3019 RMK AO2  
METAR KSTK 212350Z AUTO 16012G16KT 10SM CLR M01/M11 A3019 RMK AO2  
 
METAR KAKO 212353Z AUTO 14013G21KT 10SM CLR M04/M11 A3017 RMK AO2 SLP279  
T10441111 11022 21050 55001  
METAR KAKO 212253Z AUTO 14017KT 10SM CLR M04/M11 A3016 RMK AO2 SLP273  
T10391111  
METAR KAKO 212153Z AUTO 15016G22KT 10SM CLR M02/M11 A3016 RMK AO2 SLP271  
T10221111  
 
METAR KLIC 212355Z AUTO 15016KT 10SM CLR M04/M13 A3012 RMK AO2 SLP274  
T10441133 11017 21050 55002  
METAR KLIC 212255Z AUTO 17014G20KT 10SM CLR M03/M13 A3011 RMK AO2 SLP263  
T10281128  
METAR KLIC 212155Z AUTO 16013G20KT 10SM CLR M02/M14 A3011 RMK AO2 SLP259  
T10171139  
 
METAR KHEQ 220035Z AUTO 13008KT 10SM CLR M04/M11 A3027 RMK AO2  
METAR KHEQ 220015Z AUTO 13009KT 10SM CLR M03/M11 A3026 RMK AO2  
METAR KHEQ 212350Z AUTO 14012KT 10SM CLR M02/M11 A3026 RMK AO2  
 
METAR K2V6 220044Z AUTO 12006KT 10SM CLR M05/M13 A3022 RMK AO2  
METAR K2V6 220024Z AUTO 13008KT 10SM CLR M04/M12 A3021 RMK AO2  
METAR K2V6 212354Z AUTO 14012KT 10SM CLR M03/M12 A3021 RMK AO2  
 
METAR K2V5 220035Z AUTO 13010KT 10SM CLR M03/M13 A3026 RMK AO2  
METAR K2V5 220015Z AUTO 13011G14KT 10SM CLR M02/M13 A3026 RMK AO2  
METAR K2V5 212355Z AUTO 12009KT 10SM CLR M02/M13 A3026 RMK AO2  
 
METAR KITR 212353Z AUTO 15014KT 10SM OVC048 M04/M12 A3022 RMK AO2 SLP297  
T10391122 11017 21061 56005  
METAR KITR 212253Z AUTO 15014G19KT 10SM SCT048 OVC060 M03/M12 A3022 RMK  
AO2 SLP295 T10281122  
METAR KITR 212153Z AUTO 14015KT 10SM FEW060 OVC075 M02/M12 A3022 RMK AO2  
SLP298 T10221122  
 
SUNRISE/SUNSET FOR 02/21/2018  
FORT COLLINS - 06:45:23 MST / 17:42:20 MST  
DENVER - 06:43:58 MST / 17:42:54 MST  
STERLING - 06:38:05 MST / 17:34:48 MST  
 
DENVER/BOULDER AVIATION DISCUSSION  
ISSUED AT 2155 UTC WEDNESDAY, FEBRUARY 21, 2018  
   
AVIATION
 
(FOR THE 18Z TAFS THROUGH 18Z THURSDAY AFTERNOON)  
ISSUED AT 143 PM MST WED FEB 21 2018  
MODELS KEEP THE NORTH WINDS GOING AT DIA UNTIL AROUND 01Z, THEN  
THEY SHOW WEAK DRAINAGE PATTERNS AFTER 03Z. MODELS SHOW WEAK  
NORTHERLY FLOW ON THURSDAY. MODEL CROSS SECTIONS AND SOUNDINGS  
POINT TO CEILINGS LOWER TO BKN-OVC010-020 BY 06Z. CEILINGS COULD  
BE AN ISSUE WELL INTO THURSDAY.  
 
* * * * * SOUTHEAST COLORADO * * * * *  
 
METAR K4BM 220032Z AUTO 22004KT 10SM CLR M10/M16 A2995 RMK AO2  
METAR K4BM 220014Z AUTO 21005KT 10SM CLR M10/M16 A2995 RMK AO2 LTG DSNT  
NW  
METAR K4BM 212354Z AUTO 00000KT 10SM CLR M08/M16 A2995 RMK AO2 LTG DSNT  
N AND NW  
 
METAR KAFF 212358Z 16012KT 10SM FEW030 FEW080 M05/M12 A3004 RMK AO2A  
SLPNO T10511117 11039 21065 55003  
METAR KAFF 212258Z 17012KT 10SM FEW030 M04/M11 A3004 RMK AO2A SLPNO  
T10421110  
METAR KAFF 212158Z 16012KT 10SM SCT021 SCT027 M04/M11 A3004 RMK AO2A  
SLPNO T10441110  
 
KCOS 212346Z 2200/2224 16010KT P6SM SCT025 SCT060  
FM220300 14005KT P6SM BKN025  
FM220700 VRB04KT 5SM BR VCSH OVC015  
FM221700 15007KT P6SM SCT020 BKN110  
FM222000 16009KT P6SM SCT025  
METAR KCOS 212354Z 15012KT 10SM FEW035 FEW070 M04/M13 A3009 RMK AO2  
SLP269 T10441128 11033 21072 55002  
METAR KCOS 212254Z 18007KT 10SM FEW029 SCT050 M04/M11 A3008 RMK AO2  
SLP260 T10391111  
METAR KCOS 212154Z 17009KT 10SM SCT025 SCT050 M04/M11 A3008 RMK AO2  
SLP264 T10391106  
 
METAR KABH 212356Z AUTO 18009KT A3008 RMK AO2 SLPNO 55003 $  
METAR KABH 212256Z AUTO 18008KT A3007 RMK AO2 SLPNO $  
METAR KABH 212156Z AUTO 20007KT A3008 RMK AO2 SLPNO $  
 
METAR KFLY 220035Z AUTO 17007KT 10SM CLR M08/M14 A3007 RMK AO2  
T10771136  
METAR KFLY 220015Z AUTO 17007KT 10SM CLR M06/M14 A3006 RMK AO2  
T10651136  
METAR KFLY 212355Z AUTO 17009KT 10SM CLR M06/M13 A3006 RMK AO2 T10571135  
11038 21074  
 
KFCS 212059Z 2121/2303 17012G18KT 9999 FEW030 SCT100  
QNH3007INS  
BECMG 2203/2204 15005KT 9999 SCT004 BKN006 620069  
QNH2991INS  
TEMPO 2207/2212 4800 -SN  
BECMG 2216/2217 19009KT 9999 SCT006 BKN100 QNH2987INS  
TEMPO 2221/2301 19012G18KT TX03/2221Z TNM12/2212Z  
METAR KFCS 212358Z AUTO 16009KT 10SM CLR M03/M11 A3008 RMK AO2 SLPNO  
60000 T10351115 11025 21049 55002 $  
METAR KFCS 212258Z AUTO 16009KT 10SM CLR M03/M11 A3007 RMK AO2 SLPNO  
T10281111 $  
METAR KFCS 212158Z AUTO 15011KT 10SM CLR M03/M11 A3008 RMK AO2 SLPNO  
T10271110 $  
 
KPUB 212346Z 2200/2224 11008KT P6SM FEW080  
FM220400 VRB04KT P6SM SCT080 BKN150  
FM220800 VRB04KT P6SM SCT010 BKN120  
FM221300 VRB04KT P6SM SCT010 BKN070  
FM221800 14008KT P6SM SCT070 SCT150  
METAR KPUB 212353Z 12006KT 10SM CLR M01/M12 A3013 RMK AO2 SLP255  
T10111122 10006 21044 55007  
METAR KPUB 212253Z 10007KT 10SM CLR M01/M12 A3013 RMK AO2 SLP248  
T10061117  
METAR KPUB 212153Z 12004KT 10SM CLR M01/M12 A3014 RMK AO2 SLP252  
T10111117  
 
METAR KVTP 220042Z AUTO 06003KT 10SM SCT028 BKN035 BKN044 M09/M12 A3009  
RMK AO2  
METAR KVTP 220024Z AUTO 15006G20KT 10SM SCT020 SCT027 BKN034 M07/M11  
A3009 RMK AO2  
METAR KVTP 212354Z AUTO 17008G19KT 130V240 10SM SCT020 BKN029 OVC042  
M06/M12 A3009 RMK AO2  
 
METAR KTAD 212354Z AUTO 03012KT 10SM CLR 02/M12 A3005 RMK AO2 SLP214  
T00171117 10039 21039 55008  
METAR KTAD 212254Z AUTO 03013KT 10SM CLR 03/M11 A3004 RMK AO2 SLP208  
T00331111  
METAR KTAD 212154Z AUTO 06007KT 10SM CLR 03/M12 A3005 RMK AO2 SLP211  
T00281117  
 
METAR KLHX 212353Z AUTO 10015KT 10SM CLR M02/M09 A3017 RMK AO2 SLP263  
T10221094 10000 21050 55007  
METAR KLHX 212253Z AUTO 09015KT 10SM CLR M01/M12 A3017 RMK AO2 SLP258  
T10111122  
METAR KLHX 212153Z AUTO 09011KT 10SM CLR M01/M15 A3017 RMK AO2 SLP256  
T10061150  
 
METAR KLAA 212353Z AUTO 14012KT 10SM UP OVC034 M04/M11 A3023 RMK AO2  
UPB42 SLP289 P0000 60000 T10391111 11028 21067 55005  
METAR KLAA 212253Z AUTO 11009KT 10SM OVC041 M04/M11 A3023 RMK AO2 SLP286  
T10391111  
METAR KLAA 212153Z AUTO 13009KT 10SM OVC047 M03/M11 A3023 RMK AO2 SLP283  
T10331111  
 
METAR KSPD 212356Z AUTO 14012KT M06/M09 A3020 RMK AO1 SLP280 60001  
T10611094 11028 21089 58004  
METAR KSPD 212256Z AUTO 13011KT M06/M09 A3021 RMK AO1 SLP283  
T10561094  
METAR KSPD 212156Z AUTO 13009KT M04/M09 A3020 RMK AO1 SLP274  
T10391094  
 
SUNRISE/SUNSET FOR 02/21/2018  
BURLINGTON - 06:32:42 MST / 17:32:38 MST  
PUEBLO - 06:40:53 MST / 17:43:14 MST  
LAMAR - 06:32:40 MST / 17:35:25 MST  
 
PUEBLO (KPUX) 02/22/18 00:29 UTC  
RADAR VAD WINDS HEIGHT DIR/SPD(KT)  
5700 FT MSL...068/001  
 
PUEBLO AVIATION DISCUSSION  
ISSUED AT 2303 UTC WEDNESDAY, FEBRUARY 21, 2018  
   
AVIATION
 
(FOR THE 00Z TAFS THROUGH 00Z THURSDAY EVENING)  
ISSUED AT 358 PM MST WED FEB 21 2018  
LOW STRATUS IS EXPECTED TO INCREASE AT KCOS THIS EVENING, WITH  
CONDITIONS BECOMING MVFR OR IFR, ALONG WITH THE POTENTIAL FOR SOME  
LIGHT SNOW THRU MUCH OF THU MORNING. CONDITIONS ARE EXPECTED TO  
BECOME VFR FOR THU AFTERNOON.  
 
VFR CONDITIONS ARE EXPECTED AT KPUB THRU THIS EVENING AT KPUB, BUT  
CLOUDS WILL INCREASE TONIGHT AND THERE IS THE POTENTIAL FOR LOW  
STRATUS TO DEVELOP WITH MVFR AND MAYBE BRIEF IFR CONDITIONS INTO THU  
MORNING. VFR CONDITIONS ARE EXPECTED BY LATE THU MORNING.  
VFR CONDITIONS ARE EXPECTED AT KALS UNTIL EARLY THU MORNING, WHEN  
SOME SNOW SHOWERS AND LOWER CLOUDS ARE EXPECTED TO BE IN THE AREA.  
MVFR OR EVEN IFR CONDITIONS WILL THEN BE POSSIBLE AT KALS IN THE  
MORNING HOURS, ESPECIALLY IF SNOW DOES DEVELOP. BY LATE MORNING  
CONDITIONS ARE EXPECTED TO IMPROVE. KALS HAS HAD SOME GUSTY WINDS  
THIS AFTERNOON WHICH SHOULD DECREASE EARLY THIS EVENING. THU  
AFTERNOON KALS IS EXPECTED TO SEE GUSTY SOUTHWEST WINDS DEVELOP  
AGAIN.  
 
* * * * * NORTHWEST COLORADO * * * * *  
 
METAR KCAG 212353Z AUTO 28004KT 10SM OVC100 M07/M13 A3005 RMK AO2 SLP287  
T10721128 11044 21150 55006  
METAR KCAG 212253Z AUTO 00000KT 10SM BKN090 M04/M15 A3005 RMK AO2 SLP280  
T10441150  
METAR KCAG 212153Z AUTO 00000KT 10SM BKN075 OVC090 M06/M14 A3005 RMK AO2  
SLP282 T10561139  
 
METAR KHDN 212356Z AUTO 22003KT 10SM CLR M08/M14 A3005 RMK AO2 SLP261  
T10781144 11067 21139 56003 FZRANO  
METAR KHDN 212256Z AUTO 19006KT 10SM CLR M08/M13 A3005 RMK AO2 SLP265  
T10831133 FZRANO  
METAR KHDN 212156Z AUTO 22003KT 10SM FEW043 SCT050 M08/M13 A3005 RMK AO2  
SLP263 T10831128 FZRANO  
 
METAR KSBS 220035Z AUTO 00000KT 10SM BKN110 M07/M16 A3002 RMK AO1  
T10671165  
METAR KSBS 220029Z AUTO 00000KT 10SM BKN110 M06/M16 A3002 RMK AO1  
T10631164  
METAR KSBS 220012Z AUTO 00000KT 10SM SCT110 M06/M16 A3002 RMK AO1  
T10581164  
 
METAR KC07 220030Z AUTO 23004KT 10SM SCT041 SCT047 BKN050 M13/M16 A2991  
RMK AO2  
METAR KC07 220012Z AUTO 27007KT 10SM SCT042 SCT049 M12/M16 A2991 RMK  
AO2  
METAR KC07 212348Z AUTO 26003KT 10SM SCT110 M11/M15 A2991 RMK AO2  
 
METAR K33V 220035Z AUTO 32004KT 10SM CLR M08/M18 A2998 RMK AO1  
METAR K33V 220015Z AUTO 29004KT 10SM SCT100 M07/M18 A2998 RMK AO1  
METAR K33V 212355Z AUTO 30006KT 10SM SCT100 M06/M18 A2998 RMK AO1  
 
METAR KEEO 212353Z AUTO 18003KT 10SM OVC070 M03/M09 A3000 RMK AO2 SLP241  
T10331094 10000 21106 56005  
METAR KEEO 212253Z AUTO 30003KT 10SM BKN120 M01/M14 A3000 RMK AO2 SLP231  
T10111139  
METAR KEEO 212153Z AUTO VRB03KT 10SM SCT110 M01/M15 A3001 RMK AO2 SLP231  
T10111150  
 
METAR K20V 220030Z AUTO 00000KT 10SM CLR M03/M14 A3000 RMK AO2  
METAR K20V 220012Z AUTO 00000KT 10SM CLR M03/M14 A3000 RMK AO2  
METAR K20V 212354Z AUTO 00000KT 10SM SCT080 M03/M15 A3000 RMK AO2  
 
METAR KGNB 220035Z AUTO 00000KT 10SM OVC100 M06/M18 A2999 RMK AO2  
T10621182  
METAR KGNB 220020Z AUTO 00000KT 10SM OVC100 M06/M18 A2999 RMK AO2  
T10611177  
METAR KGNB 220010Z AUTO 19004KT 10SM OVC100 M06/M18 A2999 RMK AO2  
T10601181  
 
METAR K0CO 220030Z AUTO 25005KT 10SM SCT023 BKN028 OVC035 M17/M23 A2989  
RMK AO2  
METAR K0CO 220012Z AUTO 28005KT 7SM SCT023 BKN034 OVC039 M17/M23 A2989  
RMK AO2  
METAR K0CO 212350Z AUTO 31005KT 10SM SCT041 BKN047 OVC070 M17/M22 A2989  
RMK AO2  
 
KGJT 212337Z 2200/2224 32006KT P6SM SCT060 OVC100  
FM220200 14005KT P6SM SCT050 BKN060  
FM220800 08004KT P6SM VCSH SCT040 BKN050  
FM221700 32005KT P6SM VCSH BKN035  
METAR KGJT 212353Z 00000KT 10SM OVC110 02/M13 A3003 RMK AO2 SLPNO  
T00171133 10339 21017 56005  
METAR KGJT 212253Z 00000KT 10SM CLR 02/M14 A3003 RMK AO2 SLPNO  
T00171139  
METAR KGJT 212153Z 25005KT 10SM CLR 02/M13 A3004 RMK AO2 SLPNO T00221133  
$  
 
KRIL 212337Z 2200/2224 26005KT P6SM SCT045 OVC100  
FM220400 15005KT P6SM VCSH SCT045 OVC070  
FM221700 25005KT P6SM VCSH BKN030 OVC035  
FM222100 25010KT P6SM SCT035 BKN045  
METAR KRIL 212353Z AUTO 10003KT 10SM OVC100 M01/M12 A3003 RMK AO2 SLP213  
T10061122 10006 21067 55007  
METAR KRIL 212253Z AUTO 08005KT 10SM FEW090 BKN110 M01/M13 A3003 RMK AO2  
SLP215 T10061128  
METAR KRIL 212153Z AUTO 00000KT 10SM CLR 00/M14 A3004 RMK AO2 SLP221  
T00001139  
 
METAR K5SM 220030Z AUTO 21008G14KT 10SM SCT034 OVC040 M12/M15 A2996 RMK  
AO2  
METAR K5SM 220012Z AUTO 22006KT 10SM BKN034 OVC040 M12/M15 A2996 RMK  
AO2  
METAR K5SM 212354Z AUTO 23006KT 10SM SCT030 OVC040 M12/M15 A2996 RMK  
AO2  
 
KEGE 212337Z 2200/2224 26005KT P6SM VCSH SCT060 OVC120  
FM220600 VRB03KT P6SM VCSH BKN030 BKN040  
TEMPO 2206/2209 2SM -SN BKN020  
FM221300 00000KT 2SM BR VCSH BKN030 OVC035  
FM221500 VRB03KT P6SM VCSH SCT035 BKN040  
FM222000 24010KT P6SM SCT040 BKN045 AMD LTD TO CLD VIS AND  
WIND 2206/2214  
METAR KEGE 212356Z 00000KT 10SM SCT110 M01/M14 A3001 RMK AO2 SLP236  
T10061139 10006 21078 56008  
METAR KEGE 212256Z 00000KT 10SM CLR M01/M14 A3001 RMK AO2 SLP233  
T10061144  
METAR KEGE 212156Z 00000KT 10SM CLR M01/M14 A3001 RMK AO2 SLP235  
T10111144  
 
KASE 212337Z 2200/2224 36006KT P6SM VCSH SCT040 OVC080  
TEMPO 2201/2203 4SM -SN BKN030  
FM220300 18004KT P6SM VCSH BKN040 BKN050  
FM221700 26005KT P6SM VCSH BKN025 BKN035  
FM221900 27008KT P6SM BKN050  
METAR KASE 212353Z 03004KT 10SM OVC100 M04/M13 A2995 RMK AO2 SLP198  
T10441133 11022 21094 53001  
METAR KASE 212253Z 01005KT 10SM OVC100 M03/M14 A2994 RMK AO2 SLP192  
T10331144  
METAR KASE 212153Z 01006KT 10SM SCT100 M03/M16 A2994 RMK AO2 SLP188  
T10281156  
 
METAR KCCU 220031Z AUTO 18006KT 10SM SCT070 OVC090 M08/M20 A2989 RMK  
AO2  
METAR KCCU 220013Z AUTO 18008KT 10SM SCT070 OVC090 M08/M20 A2989 RMK  
AO2  
METAR KCCU 212353Z AUTO 19006KT 10SM BKN070 OVC090 M08/M20 A2989 RMK  
AO2  
 
METAR KLXV 212353Z AUTO 18009KT 10SM OVC110 M07/M17 A2989 RMK AO2 SLP193  
T10721167 11061 21128 55001  
METAR KLXV 212253Z AUTO 17007KT 10SM FEW120 M07/M18 A2989 RMK AO2 SLP182  
T10671183  
METAR KLXV 212153Z AUTO 18012KT 10SM CLR M07/M19 A2989 RMK AO2 SLP167  
T10671194  
 
SUNRISE/SUNSET FOR 02/21/2018  
RANGELY - 06:59:39 MST / 17:57:44 MST  
GRAND JUNCTION - 06:57:34 MST / 17:58:01 MST  
STEAMBOAT SPRINGS - 06:52:18 MST / 17:49:26 MST  
 
GRAND JUNCTION (KGJX) 02/22/18 00:33 UTC  
RADAR VAD WINDS HEIGHT DIR/SPD(KT)  
22000 FT MSL...225/059  
20000 FT MSL...227/049  
19000 FT MSL...225/047  
18000 FT MSL...223/045  
17900 FT MSL...223/045  
17000 FT MSL...219/041  
16300 FT MSL...216/039  
16000 FT MSL...214/038  
15000 FT MSL...206/035  
14500 FT MSL...205/034  
14000 FT MSL...204/034  
13000 FT MSL...205/027  
12800 FT MSL...204/027  
12000 FT MSL...204/019  
11100 FT MSL...201/017  
11000 FT MSL...199/013  
11000 FT MSL...204/015  
10400 FT MSL...201/011  
 
GRAND JUNCTION AVIATION DISCUSSION  
ISSUED AT 2341 UTC WEDNESDAY, FEBRUARY 21, 2018  
   
AVIATION
 
(FOR THE 00Z TAFS THROUGH 00Z THURSDAY EVENING)  
ISSUED AT 441 PM MST WED FEB 21 2018  
EXPECT HIGH CIGS TO GRADUALLY DROP TO NEAR ILS BREAKPOINTS AT MOST  
SITES BY 06Z TONIGHT AS A WEAK PACIFIC STORM MOVES NORTHEAST  
ACROSS THE REGION. MOUNTAINS WILL BECOME OBSCURED ACROSS SOUTHWEST  
COLORADO TONIGHT WITH OCCASIONAL OBSCURATION INTO THE CENTRAL  
MOUNTAINS LATER TONIGHT AND THURSDAY. AREAS OF MVFR/IFR CONDS ARE  
EXPECTED LATE TONIGHT AND THURSDAY MORNING AT KDRO, KPSO AND  
KTEX. GRADUAL CLEARING WILL OCCUR DURING THE DAY THURSDAY WITH AN  
INCREASE IN WINDS DURING THE AFTERNOON HOURS BEFORE THE NEXT  
WEATHER SYSTEM REACHES UTAH AND COLORADO THURSDAY EVENING. ILS  
BREAKPOINTS WILL LIKELY BE REACHED AGAIN NEAR OR AFTER 00Z  
THURSDAY EVENING.  
 
* * * * * SOUTHWEST COLORADO * * * * *  
 
METAR KAJZ 220035Z AUTO 24008KT 10SM OVC070 03/M13 A3003 RMK AO2  
T00331126  
METAR KAJZ 220015Z AUTO 24006KT 10SM BKN070 04/M13 A3003 RMK AO2  
T00361135  
METAR KAJZ 212355Z AUTO 27006KT 10SM CLR 04/M14 A3002 RMK AO2 T00381136  
10041 21009  
 
KMTJ 212337Z 2200/2224 31006KT P6SM VCSH SCT060 BKN070  
FM220200 07005KT P6SM VCSH BKN045 BKN050  
FM220500 VRB03KT P6SM VCSH BKN025 BKN035  
FM221800 27009KT P6SM SCT040 BKN045  
FM222300 23012KT P6SM BKN070  
METAR KMTJ 212353Z AUTO 00000KT 10SM BKN070 OVC085 00/M11 A3003 RMK AO2  
SLP205 T00001111 10000 21056 55004  
METAR KMTJ 212253Z AUTO 29005KT 10SM SCT110 00/M10 A3003 RMK AO2 SLP202  
T00001100  
METAR KMTJ 212153Z AUTO 27009KT 10SM CLR M01/M09 A3003 RMK AO2 SLP202  
T10061089  
 
METAR KGUC 212356Z AUTO 24008KT 10SM CLR M03/M12 A2996 RMK AO2 SLP233  
T10281122 10000 21100 55006 FZRANO  
METAR KGUC 212256Z AUTO 00000KT 10SM CLR 00/M13 A2995 RMK AO2 SLP213  
T00001133 FZRANO  
METAR KGUC 212156Z AUTO 00000KT 10SM CLR M02/M13 A2995 RMK AO2 SLP219  
T10171133 FZRANO  
 
METAR K7BM 220030Z AUTO 00000KT 10SM SCT110 M02/M13 A2993 RMK AO2  
METAR K7BM 220012Z AUTO 15004KT 10SM CLR M02/M12 A2993 RMK AO2  
METAR K7BM 212354Z AUTO 17006KT 10SM CLR M02/M13 A2993 RMK AO2  
 
METAR KAEJ 220035Z AUTO 15010KT 10SM CLR M01/M15 A2995 RMK AO2  
T10151150  
METAR KAEJ 220015Z AUTO 15010G15KT 10SM CLR M01/M15 A2994 RMK AO2  
T10111149  
METAR KAEJ 212355Z AUTO 15011KT 10SM CLR M01/M15 A2994 RMK AO2 T10071151  
10010 21061  
 
METAR KANK 220035Z AUTO 20009G14KT 10SM CLR 01/M14 A3004 RMK AO1  
T00101140  
METAR KANK 220015Z AUTO 17007G16KT 10SM CLR 01/M14 A3004 RMK AO1  
T00111143  
METAR KANK 212355Z AUTO 18010G16KT 10SM CLR 02/M14 A3003 RMK AO1  
T00151145 10025 21045  
 
METAR KMYP 220035Z AUTO 21019KT 10SM CLR M12/M15 A3002 RMK AO2  
METAR KMYP 220012Z AUTO 21020KT 10SM CLR M11/M15 A3002 RMK AO2  
METAR KMYP 212348Z AUTO 20020G24KT 10SM CLR M11/M15 A3001 RMK AO2  
 
METAR KAIB 220035Z AUTO 35004KT 10SM BKN060 OVC070 01/M08 A3001 RMK  
AO2  
METAR KAIB 220015Z AUTO 01004KT 10SM SCT055 BKN075 OVC090 01/M09 A3001  
RMK AO2  
METAR KAIB 212355Z AUTO 35003KT 10SM SCT041 BKN060 OVC090 02/M10 A3002  
RMK AO2  
 
KTEX 212337Z 2200/2224 21011G23KT P6SM -SHSN SCT020 OVC050  
TEMPO 2202/2206 20007KT 1 1/2SM -SHSN SCT015 OVC035  
FM220600 21007KT 1SM -SHSN SCT010 OVC020  
FM221200 20008KT P6SM -SHSN SCT015 OVC035  
FM221400 21008KT P6SM VCSH SCT015 OVC035  
FM221600 22010G23KT P6SM VCSH SCT025 OVC030  
METAR KTEX 220035Z AUTO 22003KT 10SM SCT050 SCT060 BKN100 M04/M13 A2997  
RMK AO2 T10411133  
METAR KTEX 220015Z AUTO 22005KT 10SM SCT060 OVC100 M04/M13 A2997 RMK AO2  
T10401132  
METAR KTEX 212355Z AUTO 00000KT 10SM SCT040 BKN055 OVC100 M04/M13 A2997  
RMK AO2 T10401135 11024 21053  
 
METAR KCEZ 212353Z AUTO 17009G16KT 10SM SCT055 BKN070 OVC085 03/M08  
A2998 RMK AO2 SLP172 T00331083 10050 20011 57009  
METAR KCEZ 212253Z AUTO 15010KT 10SM OVC065 04/M09 A2999 RMK AO2 SLP174  
T00391089  
METAR KCEZ 212153Z AUTO 16010G16KT 10SM BKN065 04/M09 A3000 RMK AO2  
SLP177 T00441094  
 
KDRO 212337Z 2200/2224 15006KT P6SM -SHSN SCT035 OVC050  
FM220400 14004KT 1 1/2SM -SHSN BKN015 OVC020  
FM221300 21006KT P6SM VCSH SCT020 OVC025  
FM221700 23011KT P6SM VCSH SCT025 BKN040  
FM221800 23012G20KT P6SM SCT030 BKN045  
METAR KDRO 212353Z AUTO 03006KT 10SM SCT050 OVC065 01/M06 A2999 RMK AO2  
SLP205 T00111061 10017 21017 56010  
METAR KDRO 212253Z AUTO 08007KT 10SM FEW043 OVC055 01/M07 A3000 RMK AO2  
SLP212 T00061067  
METAR KDRO 212153Z AUTO 13008KT 10SM FEW040 BKN050 BKN060 01/M07 A3001  
RMK AO2 SLP213 T00061067  
 
METAR KPSO 220035Z AUTO 00000KT 10SM SCT044 BKN065 OVC075 M01/M08 A2999  
RMK AO2 T10101081  
METAR KPSO 220015Z AUTO 03003KT 10SM SCT036 BKN065 OVC075 M01/M08 A3000  
RMK AO2 T10101083  
METAR KPSO 212355Z AUTO 02003KT 10SM SCT020 SCT030 OVC036 M01/M08 A3001  
RMK AO2 T10101081 11004 21029  
 
METAR KCPW 220030Z AUTO 20010KT M12/M12 A2998 RMK AO2 PWINO  
METAR KCPW 220024Z AUTO 20011KT BKN001 BKN007 OVC011 M12/M12 A2998 RMK  
AO2 PWINO  
METAR KCPW 220006Z AUTO 19011G17KT BKN001 BKN006 OVC012 M12/M12 A2999  
RMK AO2 PWINO  
 
KALS 212346Z 2200/2224 22010G20KT P6SM SCT060  
FM220200 17009KT P6SM SCT060  
FM220700 17010KT P6SM SCT080 BKN150  
FM221200 19008KT 5SM BR VCSH BKN012 OVC030  
FM221700 21012KT P6SM SCT050 BKN100  
FM222000 23015G25KT P6SM SCT150  
METAR KALS 212352Z AUTO 24014KT 10SM FEW055 SCT065 02/M11 A2997 RMK AO2  
SLP193 6//// T00221111 10039 21044 55005  
METAR KALS 212252Z AUTO 23016G21KT 10SM SCT060 03/M11 A2997 RMK AO2  
SLP187 T00331111  
METAR KALS 212152Z AUTO 22013G22KT 10SM FEW055 03/M12 A2997 RMK AO2  
SLP184 T00331117  
 
SUNRISE/SUNSET FOR 02/21/2018  
VAIL - 06:49:26 MST / 17:48:35 MST  
DURANGO - 06:52:48 MST / 17:57:19 MST  
ALAMOSA - 06:45:01 MST / 17:49:08 MST  
 
GRAND JUNCTION (KGJX) 02/22/18 00:33 UTC  
RADAR VAD WINDS HEIGHT DIR/SPD(KT)  
22000 FT MSL...225/059  
20000 FT MSL...227/049  
19000 FT MSL...225/047  
18000 FT MSL...223/045  
17900 FT MSL...223/045  
17000 FT MSL...219/041  
16300 FT MSL...216/039  
16000 FT MSL...214/038  
15000 FT MSL...206/035  
14500 FT MSL...205/034  
14000 FT MSL...204/034  
13000 FT MSL...205/027  
12800 FT MSL...204/027  
12000 FT MSL...204/019  
11100 FT MSL...201/017  
11000 FT MSL...199/013  
11000 FT MSL...204/015  
10400 FT MSL...201/011  
 
GRAND JUNCTION AVIATION DISCUSSION  
ISSUED AT 2341 UTC WEDNESDAY, FEBRUARY 21, 2018  
   
AVIATION
 
(FOR THE 00Z TAFS THROUGH 00Z THURSDAY EVENING)  
ISSUED AT 441 PM MST WED FEB 21 2018  
EXPECT HIGH CIGS TO GRADUALLY DROP TO NEAR ILS BREAKPOINTS AT MOST  
SITES BY 06Z TONIGHT AS A WEAK PACIFIC STORM MOVES NORTHEAST  
ACROSS THE REGION. MOUNTAINS WILL BECOME OBSCURED ACROSS SOUTHWEST  
COLORADO TONIGHT WITH OCCASIONAL OBSCURATION INTO THE CENTRAL  
MOUNTAINS LATER TONIGHT AND THURSDAY. AREAS OF MVFR/IFR CONDS ARE  
EXPECTED LATE TONIGHT AND THURSDAY MORNING AT KDRO, KPSO AND  
KTEX. GRADUAL CLEARING WILL OCCUR DURING THE DAY THURSDAY WITH AN  
INCREASE IN WINDS DURING THE AFTERNOON HOURS BEFORE THE NEXT  
WEATHER SYSTEM REACHES UTAH AND COLORADO THURSDAY EVENING. ILS  
BREAKPOINTS WILL LIKELY BE REACHED AGAIN NEAR OR AFTER 00Z  
THURSDAY EVENING.  
 
* * * * * ARIZONA * * * * *  
 
KPGA 212335Z 2200/2224 VRB05KT P6SM BKN100  
FM222100 25012G18KT P6SM BKN070  
METAR KPGA 212353Z AUTO 00000KT 10SM BKN075 OVC090 04/M13 A3000 RMK AO2  
SLP168 T00441128 10050 20006 56006 TSNO  
METAR KPGA 212253Z AUTO 07005KT 10SM BKN090 OVC110 04/M13 A3001 RMK AO2  
SLP172 T00441128 TSNO  
METAR KPGA 212153Z AUTO 10003KT 10SM BKN110 04/M13 A3001 RMK AO2 SLP170  
T00441128 TSNO  
 
METAR KRQE 212353Z AUTO 20010KT 10SM FEW050 04/M06 A2995 RMK AO2 SLP146  
T00441056 10050 20011 56008 TSNO  
METAR KRQE 212253Z AUTO 19012G19KT 10SM SCT050 BKN070 05/M07 A2995 RMK  
AO2 SLP140 T00501067 TSNO  
METAR KRQE 212153Z AUTO 18011G21KT 10SM BKN060 BKN070 04/M07 A2996 RMK  
AO2 SLP144 T00441067 TSNO  
 
FLAGSTAFF (KFSX) 02/22/18 00:28 UTC  
RADAR VAD WINDS HEIGHT DIR/SPD(KT)  
19000 FT MSL...222/053  
18000 FT MSL...222/045  
17000 FT MSL...223/042  
16000 FT MSL...219/042  
15300 FT MSL...226/043  
15000 FT MSL...219/039  
14000 FT MSL...215/031  
13600 FT MSL...198/033  
13000 FT MSL...215/032  
12000 FT MSL...208/032  
11000 FT MSL...203/023  
10000 FT MSL...195/024  
9000 FT MSL...203/022  
8400 FT MSL...203/012  
 
FLAGSTAFF AVIATION DISCUSSION  
ISSUED AT 2220 UTC WEDNESDAY, FEBRUARY 21, 2018  
   
AVIATION...FOR THE 00Z PACKAGE
 
EXPECT MID LEVEL CLOUDS TO  
INCREASE ACROSS MOST TAF SITES THIS EVENING WITH ISOLATED TO  
SCATTERED SHOWERS IN THE WHITE MOUNTAINS AND ALONG THE NM BORDER.  
CEILINGS WILL GENERALLY REMAIN AT OR ABOVE 4-7KFT AGL WITH THE  
LOWEST CONDITIONS OVER EASTERN AZ. WINDS WILL BE SOUTHWEST AT 10-20  
KTS, WEAKENING AFTER 02Z. SHOWERS WILL PUSH EAST OF THE AREA BY 12Z  
THURSDAY. SOUTHWEST WINDS INCREASING TO 15-20 KTS GUSTING TO 30 KT  
AFTER 18Z THURSDAY. AVIATION DISCUSSION NOT UPDATED FOR AMENDMENTS.  
 
* * * * * UTAH * * * * *  
 
KSLC 212347Z 2200/2306 33007KT P6SM SCT200  
FM220300 16006KT P6SM SCT070 SCT150  
FM221700 16012G20KT P6SM SCT060 BKN110  
FM222200 35006KT P6SM SCT060 BKN090  
FM230200 16011KT P6SM VCSH SCT030 BKN050  
METAR KSLC 212354Z 31006KT 10SM FEW080 SCT210 00/M12 A3009 RMK AO2  
SLP217 4/004 60000 T00001117 10000 21028 56004  
METAR KSLC 212254Z 35006KT 10SM FEW080 FEW220 00/M11 A3010 RMK AO2  
SLP216 T00001106  
METAR KSLC 212154Z 35007KT 10SM FEW080 FEW120 SCT220 00/M11 A3010 RMK  
AO2 SLP219 ACSL DSNT N AND SE AND NW T00001111  
 
KVEL 212337Z 2200/2224 VRB03KT P6SM SCT060 OVC200  
FM220200 34004KT P6SM FEW070 SCT100  
FM220800 35004KT P6SM SCT070 BKN100  
FM221200 VRB03KT P6SM BKN050 OVC070  
FM222000 19005KT P6SM FEW050 SCT060  
METAR KVEL 212353Z AUTO 21004KT 10SM OVC100 M05/M14 A3007 RMK AO2 SLP249  
T10501139 11028 21089 56011  
METAR KVEL 212253Z AUTO 00000KT 10SM FEW095 M03/M16 A3007 RMK AO2 SLP247  
T10331156  
METAR KVEL 212153Z AUTO 00000KT 10SM CLR M04/M14 A3009 RMK AO2 SLP257  
T10441144  
 
METAR KPUC 212353Z AUTO 00000KT 10SM CLR M01/M17 A3000 RMK AO2 SLP226  
T10111167 10000 21056 56009  
METAR KPUC 212253Z AUTO 20003KT 10SM CLR M01/M17 A3000 RMK AO2 SLP225  
T10061167  
METAR KPUC 212153Z AUTO 00000KT 10SM CLR M01/M17 A3001 RMK AO2 SLP226  
T10111167  
 
KCNY 212337Z 2200/2224 34005KT P6SM SCT090 OVC100  
FM220900 36004KT P6SM SCT050 BKN110  
FM221500 17004KT P6SM SCT045 OVC070  
FM221700 20008KT P6SM BKN050 BKN070  
FM221900 21012KT P6SM FEW050 SCT060  
FM222200 21015G23KT P6SM BKN070  
METAR KCNY 212353Z AUTO 33007KT 10SM OVC110 02/M13 A3002 RMK AO2 SLP190  
T00221128 10028 21006 56005  
METAR KCNY 212253Z AUTO 30004KT 10SM OVC095 02/M12 A3002 RMK AO2 SLP191  
T00221122  
METAR KCNY 212153Z AUTO 32004KT 10SM FEW120 02/M12 A3002 RMK AO2 SLP192  
T00221122  
 
SALT LAKE CITY (KMTX) 02/22/18 00:34 UTC  
RADAR VAD WINDS HEIGHT DIR/SPD(KT)  
16000 FT MSL...141/003  
12000 FT MSL...022/001  
11000 FT MSL...293/002  
10000 FT MSL...322/003  
9300 FT MSL...285/003  
9000 FT MSL...360/001  
7600 FT MSL...093/002  
6900 FT MSL...322/000  
 
SALT LAKE CITY AVIATION DISCUSSION  
ISSUED AT 2312 UTC WEDNESDAY, FEBRUARY 21, 2018  
   
AVIATION
 
NORTHWEST WINDS AT THE SLC TERMINAL ARE EXPECTED TO  
SWITCH TO THE SOUTHEAST BY 03Z THIS EVENING. SCATTERED HIGH CLOUDS  
WILL PERSIST OVERNIGHT.  
 
* * * * * WYOMING * * * * *  
 
KEVW 212347Z 2200/2224 08007KT P6SM SCT060 SCT120  
FM221200 11006KT P6SM SCT040 BKN070  
FM221900 23009KT P6SM VCSH SCT020 BKN035=  
METAR KEVW 212353Z AUTO 08007KT 10SM CLR M11/M16 A2998 RMK AO2 SLP243  
T11111161 11072 21139 56001  
METAR KEVW 212253Z AUTO 07006KT 10SM CLR M09/M16 A2999 RMK AO2 SLP235  
T10941156  
METAR KEVW 212153Z AUTO 00000KT 10SM CLR M07/M16 A2998 RMK AO2 SLP231  
T10721161  
 
KRKS 212331Z 2200/2224 23006KT P6SM BKN080  
FM220300 VRB05KT P6SM BKN080  
METAR KRKS 212354Z AUTO 22003KT 10SM FEW120 M10/M16 A3004 RMK AO2 SLP274  
T11001161 11083 21172 56002  
METAR KRKS 212254Z AUTO 31003KT 10SM CLR M10/M17 A3004 RMK AO2 SLP267  
T11001172  
METAR KRKS 212154Z AUTO 35004KT 10SM CLR M09/M17 A3004 RMK AO2 SLP271  
T10941167  
 
KRWL 212320Z 2200/2224 25006KT P6SM FEW050 BKN140  
FM220800 VRB03KT P6SM SCT040 OVC100  
FM221400 VRB05KT P6SM BKN040 OVC060  
METAR KRWL 212353Z AUTO 30005KT 10SM FEW075 M09/M14 A3003 RMK AO2 SLP258  
T10891139 11078 21111 55004 PWINO FZRANO $  
METAR KRWL 212253Z AUTO 25009KT 10SM BKN090 BKN120 M08/M14 A3003 RMK AO2  
SLP260 T10831139 PWINO FZRANO $  
METAR KRWL 212153Z AUTO 25012KT 10SM CLR M08/M13 A3003 RMK AO2 SLP264  
T10781133 PWINO FZRANO $  
 
KLAR 212320Z 2200/2224 24008KT P6SM SCT050  
FM220300 13005KT P6SM SCT050 BKN140  
FM221200 04005KT P6SM BKN040 OVC080  
METAR KLAR 212353Z AUTO 36008KT 10SM SCT090 SCT100 M10/M14 A3000 RMK AO2  
SLP262 60000 T11001139 11044 21100 53004  
METAR KLAR 212253Z AUTO 34010KT 10SM FEW110 M07/M13 A2999 RMK AO2 SLP247  
T10721128  
METAR KLAR 212153Z AUTO 21011KT 10SM FEW065 M05/M17 A2998 RMK AO2 SLP236  
T10501167  
 
KCYS 212320Z 2200/2224 19008KT P6SM FEW080  
FM220400 18008KT P6SM FEW060 BKN160  
FM221000 07006KT 5SM BR VCSH SCT020 OVC030  
METAR KCYS 212353Z 17008KT 9SM CLR M08/M12 A3007 RMK AO2 SLP277  
T10781117 11039 21083 52001  
METAR KCYS 212253Z 18009KT 10SM CLR M06/M11 A3007 RMK AO2 SLP269  
T10611111  
METAR KCYS 212153Z 18008KT 10SM CLR M05/M11 A3007 RMK AO2 SLP264  
T10501111  
 
RIVERTON (KRIW) 02/22/18 00:31 UTC  
RADAR VAD WINDS HEIGHT DIR/SPD(KT)  
13000 FT MSL...045/000  
11000 FT MSL...232/002  
8300 FT MSL...148/000  
6600 FT MSL...115/003  
6500 FT MSL...108/007  
5900 FT MSL...321/004  
 
RIVERTON AVIATION DISCUSSION  
ISSUED AT 2055 UTC WEDNESDAY, FEBRUARY 21, 2018  
   
AVIATION
 
(FOR THE 00Z TAFS THROUGH 00Z FRIDAY)  
ISSUED AT 145 PM MST WED FEB 21 2018  
WEST OF THE CONTINENTAL DIVIDE...KJAC, KBPI, KPNA, AND KRKS  
ALL TERMINALS WILL BE VFR THROUGH 00Z/THU. MID-CLOUD COVERAGE  
WILL INCREASE FROM THE SOUTHWEST THURSDAY WITH ENOUGH AVAILABLE  
MOISTURE TO NECESSITATE VCSH AT KJAC, KBPI, AND KPNA LATE IN THE  
FORECAST PERIOD. SURFACE WINDS AT ALL TERMINALS WILL BE LESS THAN  
10KTS.  
EAST OF THE CONTINENTAL DIVIDE...KCPR, KCOD, KRIW, KLND, AND KWRL  
ALL TERMINALS WILL SEE VFR CONDITIONS THROUGH 00Z/THU. MID AND HIGH  
CLOUDS WILL INCREASE FROM THE SOUTHWEST LATER THURSDAY. THERE COULD  
BE SOME POCKETS OF MVFR FOG IN THE BIG HORN BASIN THURSDAY MORNING  
BUT IT IS NOT EXPECTED AT ANY TERMINAL. WIND SPEEDS WILL BE LESS  
THAN 10KTS AT ALL TERMINALS AS THE LATE WEDNESDAY AFTERNOON WIND  
DECREASES AT KCPR.  
PLEASE SEE THE AVIATION WEATHER CENTER AND/OR CWSU ZDV AND ZLC FOR  
THE LATEST INFORMATION ON ICING AND TURBULENCE FORECASTS.  
 
CHEYENNE AVIATION DISCUSSION  
ISSUED AT 2313 UTC WEDNESDAY, FEBRUARY 21, 2018  
   
AVIATION
 
(FOR THE 00Z TAFS THROUGH 00Z THURSDAY EVENING)  
ISSUED AT 411 PM MST WED FEB 21 2018  
VFR THROUGH THIS EVENING. AREAS OF MOUNTAIN OBSCURATION DEVELOPING  
AFTER 09Z. MVFR CEILINGS/VISIBILITIES AND LIGHT SNOW NEBRASKA  
PANHANDLE AFTER 12Z. AREAS OF IFR POSSIBLE EAST OF KSNY-KCDR.  
 
* * * * * NEBRASKA * * * * *  
 
METAR KIBM 220035Z AUTO 14003KT 10SM CLR M07/M11 A3015 RMK AO2  
T10731115  
METAR KIBM 220015Z AUTO 00000KT 10SM CLR M07/M12 A3015 RMK AO2  
T10691119  
METAR KIBM 212355Z AUTO 00000KT 10SM CLR M05/M11 A3015 RMK AO2 T10521112  
11040 21056  
 
KSNY 212320Z 2200/2224 16012KT P6SM FEW060  
FM220900 16008KT P6SM BKN060 BKN120  
FM221100 16010KT P6SM BKN025 OVC050  
FM221400 16012KT 3SM -SN BR OVC020  
FM222100 21006KT P6SM OVC025  
METAR KSNY 212353Z AUTO 14011KT 10SM CLR M04/M12 A3020 RMK AO2 SLP307  
T10391117 11011 21039 55003  
METAR KSNY 212253Z AUTO 17013KT 10SM CLR M02/M12 A3020 RMK AO2 SLP298  
T10171117  
METAR KSNY 212153Z AUTO 16014KT 10SM CLR M01/M11 A3020 RMK AO2 SLP295  
T10111106  
 
METAR KOGA 220035Z AUTO 10004KT 10SM CLR M06/M11 A3031 RMK AO2  
T10561112  
METAR KOGA 220015Z AUTO 13006KT 10SM CLR M05/M12 A3031 RMK AO2  
T10501116  
METAR KOGA 212355Z AUTO 14007KT 10SM CLR M04/M11 A3032 RMK AO2 T10451113  
11036 21065  
 
METAR KIML 212353Z AUTO 11007KT 10SM CLR M05/M12 A3031 RMK AO2 SLP323  
T10501122 11033 21072 56007  
METAR KIML 212253Z AUTO 15009KT 10SM CLR M03/M12 A3031 RMK AO2 SLP321  
T10331122  
METAR KIML 212153Z AUTO 15011KT 10SM CLR M04/M12 A3032 RMK AO2 SLP320  
T10391117  
 
KMCK 212320Z 2200/2224 13011KT P6SM BKN035  
FM220900 13007KT 6SM BR VCSH BKN025  
TEMPO 2214/2218 1 1/2SM -SN BR BKN007  
METAR KMCK 212353Z AUTO 13013KT 10SM BKN080 OVC090 M02/M15 A3037 RMK AO2  
SLP330 T10221150 11006 21061 55007  
METAR KMCK 212253Z AUTO 13011KT 10SM BKN090 M02/M15 A3037 RMK AO2 SLP328  
T10171150  
METAR KMCK 212153Z AUTO 11009KT 10SM OVC075 M01/M16 A3037 RMK AO2 SLP330  
T10111156  
 
NORTH PLATTE (KLNX) 02/22/18 00:31 UTC  
RADAR VAD WINDS HEIGHT DIR/SPD(KT)  
11000 FT MSL...228/032  
4000 FT MSL...256/000  
 
NORTH PLATTE AVIATION DISCUSSION  
ISSUED AT 2333 UTC WEDNESDAY, FEBRUARY 21, 2018  
   
AVIATION
 
(FOR THE 00Z TAFS THROUGH 00Z THURSDAY EVENING)  
ISSUED AT 533 PM CST WED FEB 21 2018  
VFR CONDITIONS AND A SOUTHERLY WIND UP TO 10KT WILL CONTINUE  
THROUGH THIS EVENING ACROSS WESTERN NEBRASKA. CLOUD COVER  
INCREASES AND CIGS DROP TO MVFR FROM 09Z-12Z OVERNIGHT AS THE NEXT  
STORM SYSTEM APPROACHES. LIGHT SNOW WILL DEVELOP ACROSS MUCH OF  
WESTERN NEBRASKA THURSDAY MORNING (AFFECTING KLBF AND KVTN). IFR  
CIGS AND VSBYS ARE POSSIBLE AFTER 22/12Z SOUTHWEST AND 22/18Z  
NORTH CENTRAL.  
 
* * * * * KANSAS * * * * *  
 
KGLD 212320Z 2200/2224 13011KT P6SM BKN035  
FM220200 15010KT P6SM BKN025  
FM220600 14010KT 6SM BR BKN015  
TEMPO 2212/2216 3SM -SN BR BKN007  
FM221800 17011KT P6SM BKN050  
METAR KGLD 212353Z AUTO 13011KT 10SM BKN047 OVC055 M03/M16 A3027 RMK AO2  
SLP304 T10331161 11006 21050 56004  
METAR KGLD 212253Z AUTO 13011KT 10SM OVC050 M03/M16 A3027 RMK AO2 SLP302  
T10281161  
METAR KGLD 212153Z AUTO 14010G19KT 10SM OVC060 M02/M17 A3026 RMK AO2  
SLP301 T10221172  
 
KGCK 212336Z 2200/2224 10008KT P6SM -SN BKN040  
FM220400 11007KT P6SM -SN OVC030  
FM221200 11007KT P6SM BKN009  
FM221800 15009KT P6SM BKN010  
FM222300 15011KT P6SM BKN030  
METAR KGCK 212354Z 08012KT 10SM FEW042 OVC055 M04/M18 A3032 RMK AO2  
SLP309 T10441183 11039 21078 58007  
METAR KGCK 212254Z 07007KT 10SM SCT039 OVC070 M04/M18 A3034 RMK AO2  
SLP316 T10441183  
METAR KGCK 212154Z 09008KT 10SM OVC065 M04/M18 A3034 RMK AO2 SLP313  
T10441183  
 
METAR KLBL 212356Z AUTO 08010KT 10SM OVC044 M03/M14 A3031 RMK AO2 SLP300  
6//// T10331144 11028 21067 FZRANO  
METAR KLBL 212256Z AUTO 06006KT 9SM OVC048 M03/M13 A3032 RMK AO2  
SNB21E51 SLP301 P0000 T10281133 FZRANO  
METAR KLBL 212156Z AUTO 10SM OVC055 M03/M13 RMK AO2 SLPNO T10281133  
FZRANO $  
 
METAR KEHA 220035Z AUTO 09003KT 10SM OVC036 M03/M08 A3027 RMK AO2  
T10351080  
METAR KEHA 220015Z AUTO 08004KT 10SM OVC036 M04/M08 A3026 RMK AO2  
T10361081  
METAR KEHA 212355Z AUTO 00000KT 10SM OVC038 M04/M08 A3027 RMK AO2  
T10371082 11035 21072  
 
GOODLAND (KGLD) 02/22/18 00:27 UTC  
RADAR VAD WINDS HEIGHT DIR/SPD(KT)  
14000 FT MSL...202/034  
13000 FT MSL...208/034  
12000 FT MSL...208/034  
11500 FT MSL...209/034  
11000 FT MSL...211/034  
10000 FT MSL...209/034  
9900 FT MSL...209/034  
9000 FT MSL...204/033  
8100 FT MSL...199/028  
8000 FT MSL...196/027  
7000 FT MSL...179/021  
6400 FT MSL...169/021  
6000 FT MSL...155/023  
5000 FT MSL...145/016  
4700 FT MSL...143/018  
4600 FT MSL...142/014  
4000 FT MSL...130/016  
 
DODGE CITY (KDDC) 02/22/18 00:28 UTC  
RADAR VAD WINDS HEIGHT DIR/SPD(KT)  
14000 FT MSL...213/037  
13000 FT MSL...213/041  
12000 FT MSL...218/027  
11000 FT MSL...212/025  
10500 FT MSL...206/026  
10000 FT MSL...203/030  
9000 FT MSL...187/027  
8800 FT MSL...186/027  
8000 FT MSL...172/024  
7000 FT MSL...152/018  
7000 FT MSL...147/018  
6000 FT MSL...137/017  
5300 FT MSL...133/016  
5000 FT MSL...111/018  
3600 FT MSL...100/007  
3500 FT MSL...076/008  
 
GOODLAND AVIATION DISCUSSION  
ISSUED AT 2325 UTC WEDNESDAY, FEBRUARY 21, 2018  
   
AVIATION
 
(FOR THE 00Z TAFS THROUGH 00Z THURSDAY EVENING)  
ISSUED AT 420 PM MST WED FEB 21 2018  
CEILINGS WILL GRADUALLY LOWER THIS EVENING AT BOTH KGLD AND  
KMCK...WITH MVFR LIKELY BY MID EVENING, THEN IFR DURING THE  
OVERNIGHT HOURS. LIGHT SNOW WILL DEVELOP EARLY THURSDAY MORNING,  
IT MAY BE MIXED WITH FREEZING DRIZZLE, AND CONTINUE THROUGH EARLY  
THURSDAY AFTERNOON AT KGLD, AND THROUGH LATE IN THE AFTERNOON AT  
KMCK. LOWEST CEILINGS AND VISIBILITIES IN THE LIGHT SNOW WILL BE  
THURSDAY MORNING, WITH LIFR POSSIBLE FOR A BRIEF PERIOD.  
 
DODGE CITY AVIATION DISCUSSION  
ISSUED AT 0007 UTC THURSDAY, FEBRUARY 22, 2018  
   
AVIATION
 
(FOR THE 00Z TAFS THROUGH 00Z THURSDAY EVENING)  
ISSUED AT 601 PM CST WED FEB 21 2018  
A LOW TO MID LEVEL WARM ADVECTION PATTERN WILL RESULT IN A  
LOWERING OF CIGS TONIGHT FROM VFR TO MVFR AND POSSIBLY IFR THROUGH  
10-12Z. ONLY A VERY SLOW IMPROVEMENT IS EXPECTED IN CIGS TO  
POSSIBLY LOW MVFR TOWARD THE END OF THE PERIOD OR PERHAPS JUST  
AFTER THE END OF THE PERIOD. LIGHT SNOW MAY TRANSITION TO  
FREEZING DRIZZLE AS THE MOIST LAYER BECOMES MORE SHALLOW TOWARD  
MORNING. THE BEST CHANCE OF FREEZING DRIZZLE WILL BE AT KDDC.  
WINDS WILL CONTINUE TO BE LIGHT OUT OF THE NORTHEAST THEN BECOMING  
SOUTHEASTERLY TOWARD THE END OF THE PERIOD.  
 
* * * * * TEXAS/OKLAHOMA * * * * *  
 
KGUY 212341Z 2200/2224 VRB06KT P6SM OVC040  
FM220600 VRB06KT P6SM OVC015  
FM221500 19012KT P6SM OVC015  
FM221900 19016G26KT P6SM SCT045=  
METAR KGUY 212353Z AUTO 09009KT 10SM OVC039 M02/M13 A3028 RMK AO2 SLP277  
T10221133 11011 21067 56013  
METAR KGUY 212253Z AUTO 05006KT 10SM OVC045 M02/M14 A3028 RMK AO2 SLP277  
T10171139  
METAR KGUY 212153Z AUTO 04008KT 10SM OVC050 M02/M14 A3031 RMK AO2 SLP288  
T10221144  
 
KDHT 212341Z 2200/2224 11006KT P6SM OVC020  
FM220600 VRB06KT P6SM OVC010  
FM221500 20012KT P6SM BKN015  
FM221800 21019G29KT P6SM SCT050  
METAR KDHT 212353Z AUTO 07006KT 10SM OVC029 M04/M11 A3024 RMK AO2 SLP275  
60000 T10391106 11039 21078 55009  
SPECI KDHT 212320Z AUTO 06006KT 10SM OVC029 M04/M10 A3024 RMK AO2  
T10391100  
METAR KDHT 212253Z AUTO 06008KT 10SM OVC031 M04/M09 A3024 RMK AO2 SLP277  
T10441094  
 
AMARILLO (KAMA) 02/22/18 00:39 UTC  
RADAR VAD WINDS HEIGHT DIR/SPD(KT)  
13000 FT MSL...225/026  
10000 FT MSL...164/021  
8000 FT MSL...210/022  
8000 FT MSL...154/026  
7000 FT MSL...171/017  
6000 FT MSL...190/008  
 
AMARILLO AVIATION DISCUSSION  
ISSUED AT 0037 UTC THURSDAY, FEBRUARY 22, 2018  
   
AVIATION
 
 
FOR THE 00Z TAFS, EXPECT MVFR CIGS TO PERSIST FOR MOST OF THIS  
FCST CYCLE. CLEARING SKIES ARE THEN EXPECTED THURSDAY AFTERNOON.  
ANDRADE  
 
* * * * * NEW MEXICO * * * * *  
 
KFMN 212335Z 2200/2224 17009KT P6SM VCSH SCT045 BKN070  
FM220200 21007KT P6SM VCSH SCT035 OVC050  
TEMPO 2202/2206 3SM -SHSN BR OVC025  
FM221000 20006KT P6SM SCT035 BKN070  
FM222100 24012KT P6SM SCT070  
METAR KFMN 212353Z 15007KT 10SM FEW085 06/M08 A2995 RMK AO2 SLP163  
T00611078 10067 20017 56015  
METAR KFMN 212253Z 16010KT 120V200 10SM FEW060 BKN075 06/M07 A2997 RMK  
AO2 SLP171 T00561072  
METAR KFMN 212153Z 10006KT 10SM OVC060 05/M07 A2999 RMK AO2 SLP178  
T00501067  
 
METAR KSKX 212356Z AUTO 22017KT 10SM FEW050 SCT075 04/M08 A3003 RMK AO2  
SLP191 60000 T00441083 10061 21006 55004 $  
METAR KSKX 212256Z AUTO 21017G24KT 10SM BKN050 04/M09 A3002 RMK AO2 PK  
WND 22028/2221 SLP191 T00441089 $  
METAR KSKX 212156Z AUTO 21020G30KT 10SM BKN049 BKN065 05/M08 A3002 RMK  
AO2 PK WND 22030/2153 SLP190 T00501083 $  
 
KLVS 212335Z 2200/2224 18015G25KT P6SM SCT050  
FM220300 18011KT P6SM VCSH FEW025 BKN040  
TEMPO 2209/2213 OVC022  
FM221500 22015G25KT P6SM SCT045  
FM221800 23028G40KT P6SM SCT070  
METAR KLVS 212353Z AUTO 16017G22KT 10SM CLR M01/M12 A3006 RMK AO2 SLP208  
T10111122 10011 21050 55005  
METAR KLVS 212253Z AUTO 17013G23KT 10SM CLR 01/M12 A3005 RMK AO2 SLP198  
T00061117  
METAR KLVS 212153Z AUTO 18011G19KT 10SM SCT055 01/M12 A3007 RMK AO2  
SLP201 T00061117  
 
METAR KRTN 212353Z AUTO 18008KT 10SM SCT060 01/M10 A3005 RMK AO2 SLP216  
T00111100 10022 21067 56008  
METAR KRTN 212253Z AUTO 21010KT 10SM SCT065 01/M11 A3006 RMK AO2 SLP215  
T00061111  
METAR KRTN 212153Z AUTO 18009KT 10SM CLR 01/M11 A3007 RMK AO2 SLP220  
T00111106  
 
METAR KCAO 212355Z AUTO 13008KT 10SM SCT065 BKN075 M05/M10 A3017 RMK AO2  
SLP277 60000 T10501100 11028 21083 55001  
METAR KCAO 212255Z AUTO 13009KT 10SM FEW065 BKN080 M04/M10 A3016 RMK AO2  
SLP272 T10391100  
METAR KCAO 212155Z AUTO 11010KT 10SM BKN043 OVC055 M04/M12 A3017 RMK AO2  
SLP272 T10441117  
 
ALBUQUERQUE (KABX) 02/22/18 00:31 UTC  
RADAR VAD WINDS HEIGHT DIR/SPD(KT)  
18000 FT MSL...221/039  
17000 FT MSL...225/036  
16000 FT MSL...219/032  
15000 FT MSL...217/033  
14000 FT MSL...214/030  
13700 FT MSL...215/030  
13000 FT MSL...212/031  
12000 FT MSL...213/029  
12000 FT MSL...211/030  
11000 FT MSL...203/026  
10300 FT MSL...195/025  
10000 FT MSL...200/028  
9000 FT MSL...171/021  
8600 FT MSL...178/021  
8000 FT MSL...176/021  
7000 FT MSL...166/020  
6800 FT MSL...186/019  
6800 FT MSL...178/022  
6200 FT MSL...184/018  
 
ALBUQUERQUE AVIATION DISCUSSION  
ISSUED AT 2343 UTC WEDNESDAY, FEBRUARY 21, 2018  
   
AVIATION
 
 
00Z TAF CYCLE  
ANOTHER APPROACHING DISTURBANCE ALOFT WILL BEGIN TO SPREAD MOISTURE  
AND INSTABILITY INTO WESTERN AND CENTRAL NEW MEXICO TONIGHT INTO  
THURSDAY. PERIODIC MVFR TO IFR CEILINGS AND VISIBILITY WILL DEVELOP  
AS SNOW FALLS WITH MORE PERSISTENT MOUNTAIN OBSCURATIONS AND LOWER  
CEILINGS/VISIBILITY IN HIGHER TERRAIN AREAS OF NORTHWESTERN TO NORTH  
CENTRAL NEW MEXICO TONIGHT INTO EARLY THURSDAY. TAFS MOST LIKELY  
IMPACTED BY THE LOWER CEILINGS/VISIBILITIES ARE KFMN AND KGUP.  
IMPROVING CONDITIONS ARE EXPECTED THURSDAY AFTERNOON. BREEZY TO WINDY  
THURSDAY AFTERNOON AT MOST TAF SITES. GUSTS TO 40KT EXPECTED AT KLVS.  
 
* * * * * WINDS AND TEMPERATURES ALOFT FORECASTS * * * * *  
 
DATA BASED ON 211200Z  
VALID 211800Z FOR USE 1700-2100Z. TEMPS NEG ABV 24000  
FT 3000 6000 9000 12000 18000 24000 30000 34000 39000  
SLC 9900 2113-14 2315-21 2425-33 2431-43 243753 233954 235253  
BCE 1916-18 2335-29 2255-41 227350 227153 226053  
LND 2515-16 2618-22 2428-32 2343-43 235755 236955 237553  
RKS 2310 2419-22 2433-31 2350-42 236953 227854 237854  
GJT 2011-11 2221-18 2346-29 2367-39 228250 229154 228454  
FMN 1816-08 2024-14 2245-25 2355-36 227049 227555 227855  
ABQ 2025-05 2129-12 2150-22 2161-34 226349 226455 217252  
MBW 2315 2429-21 2355-29 2366-39 229350 239654 239855  
DEN 1913-11 2325-16 2357-26 2365-37 228949 228455 228954  
PUB 1916-10 2335-14 2261-23 2282-35 228349 227855 218654  
ALS 2231-13 2253-24 2270-35 227748 227354 217753  
TCC 0708 2122-02 2133-07 2158-20 2164-32 207148 207553 219751  
BFF 1934 2021-13 2325-21 2461-28 2375-37 229849 229054 229753  
GLD 1520 1922-10 2329-15 2374-22 2288-34 219548 219854 720654  
GCK 1319-07 1922-06 2332-10 2369-21 2282-32 710647 710554 712351  
GAG 1115+02 1718-02 2131-06 2358-19 2172-31 700246 712053 713149  
AMA 1018 1715-01 2132-06 2262-19 2073-30 199945 209654 701852  
---------------------------------------------------------------------  
 
DATA BASED ON 211200Z  
VALID 220000Z FOR USE 2100-0600Z. TEMPS NEG ABV 24000  
FT 3000 6000 9000 12000 18000 24000 30000 34000 39000  
SLC 9900 2309-12 2517-20 2427-33 2337-43 243752 253354 243854  
BCE 2209-18 2223-29 2240-40 235151 235254 234752  
LND 2512-14 2622-20 2436-33 2348-43 245553 245755 245855  
RKS 2407 2416-20 2336-32 2357-42 236553 236354 235754  
GJT 9900-10 2023-15 2241-28 2257-40 229051 228655 237053  
FMN 1911-04 2024-12 2145-25 2267-35 228250 228155 227453  
ABQ 1922-03 2027-09 2247-21 2358-33 227049 237455 227551  
MBW 2614 2327-19 2451-30 2374-41 720450 229855 228254  
DEN 9900-10 2218-13 2357-25 2273-36 218950 228556 228655  
PUB 2017-07 2329-11 2252-21 2257-33 216749 217355 218455  
ALS 2220-11 2249-22 2361-34 227350 227555 227953  
TCC 1510 2212-03 2330-07 2251-20 2152-33 225447 216452 218851  
BFF 1718 2215-11 2425-18 2459-27 2377-37 720450 229655 229756  
GLD 1626 2028-05 2233-12 2365-22 2281-33 218348 208955 710656  
GCK 1416-02 2020-03 2131-07 2361-21 2176-32 209047 209554 711453  
GAG 1523+01 1937-01 2235-05 2153-19 2069-31 198645 199552 711752  
AMA 1418 1924+00 2121-05 2252-19 2060-32 206146 207351 219950  
---------------------------------------------------------------------  
 
DATA BASED ON 211200Z  
VALID 221200Z FOR USE 0600-1700Z. TEMPS NEG ABV 24000  
FT 3000 6000 9000 12000 18000 24000 30000 34000 39000  
SLC 1805 2111-12 2313-20 2327-33 2621-40 232953 234057 245253  
BCE 2611-19 2620-30 2929-38 253851 244753 246751  
LND 2308-13 2418-20 2231-32 2243-42 233252 233156 234955  
RKS 1906 2407-19 2226-32 2247-41 233852 233455 235454  
GJT 2313-10 2222-17 2138-30 2147-40 225251 235651 237151  
FMN 2417-08 2331-15 2149-28 2156-40 227846 238150 238350  
ABQ 2323-05 2232-12 2256-25 2276-35 239345 239949 730051  
MBW 1609 2014-16 2249-29 2260-40 226654 226354 226753  
DEN 2209-09 2617-12 2242-25 2167-38 217851 228753 228653  
PUB 2121-05 2237-11 2247-25 2166-37 229147 229551 239652  
ALS 2429-12 2140-25 2166-39 229447 229449 239050  
TCC 2213 2226-01 2240-08 2265-21 2280-35 730244 731949 731252  
BFF 1407 1809-07 2119-14 2236-28 2275-37 218153 228456 228755  
GLD 2021 2134-04 2029-10 2250-23 2270-34 228550 720053 730953  
GCK 2115-03 2226-02 2435-08 2258-21 2273-33 228947 730952 731653  
GAG 2214+02 2529+02 2445-06 2259-19 2275-32 731843 733450 732554  
AMA 2113 2229+01 2244-06 2269-19 2175-32 732142 733150 731954  
---------------------------------------------------------------------  
 
THIS PRODUCT IS UPDATED AUTOMATICALLY AT APPROXIMATELY 10, 30 AND 50  
MINUTES AFTER EACH HOUR, 24 HOURS PER DAY, 7 DAYS PER WEEK. IT MAY  
BECOME UNAVAILABLE AT TIMES DUE TO SYSTEM OUTAGES WITHOUT PRIOR NOTICE.  
USERS ARE ADVISED TO CHECK THE TIME AT THE TOP OF THE PRODUCT TO ENSURE  
THAT IT IS CURRENT. FURTHERMORE, CONTENT AND FORMAT OF THE PRODUCT ARE  
SUBJECT TO CHANGE WITHOUT PRIOR NOTICE.  
 
COMMENTS AND SUGGESTIONS ARE WELCOME AND SHOULD BE DIRECTED TO ONE OF  
THE ADDRESSES OR PHONE NUMBERS SHOWN AT THE BOTTOM OF THIS PAGE. IN  
ORDER TO EXPEDITE A RESPONSE TO COMMENTS OR SUGGESTIONS, BE SURE TO  
MENTION YOUR INTEREST IN THE HOT-AIR BALLOON FORECAST.  
 
CLICK HERE TO GO TO PREVIOUS BULLETINS.

The Nexlab CO Page Main Text Page